createdAt,value
2018-10-09T00:00:13.224Z,64.03
2018-10-09T00:02:41.859Z,64.48
2018-10-09T00:05:08.381Z,64.96
2018-10-09T00:07:36.802Z,65.36
2018-10-09T00:10:03.842Z,65.44
2018-10-09T00:12:30.325Z,65.34
2018-10-09T00:14:57.589Z,65.85
2018-10-09T00:17:25.710Z,65.79
2018-10-09T00:19:52.472Z,65.78
2018-10-09T00:22:18.960Z,65.46
2018-10-09T00:24:45.847Z,64.82
2018-10-09T00:27:12.378Z,64.38
2018-10-09T00:29:40.992Z,65.54
2018-10-09T00:34:40.240Z,65.82
2018-10-09T00:37:06.755Z,66.50
2018-10-09T00:39:33.198Z,66.12
2018-10-09T00:42:00.192Z,66.06
2018-10-09T00:44:26.687Z,66.13
2018-10-09T00:46:53.205Z,66.87
2018-10-09T00:49:22.835Z,66.09
2018-10-09T00:51:49.422Z,66.70
2018-10-09T01:14:31.919Z,66.40
2018-10-09T01:16:58.352Z,66.48
2018-10-09T01:19:24.816Z,66.77
2018-10-09T01:21:51.476Z,67.20
2018-10-09T01:24:17.944Z,66.61
2018-10-09T01:26:44.391Z,65.90
2018-10-09T01:29:10.901Z,66.13
2018-10-09T01:31:37.552Z,66.84
2018-10-09T01:34:04.103Z,66.61
2018-10-09T01:36:30.758Z,66.36
2018-10-09T01:38:57.367Z,66.60
2018-10-09T01:41:25.176Z,66.59
2018-10-09T01:43:53.224Z,66.01
2018-10-09T01:46:19.885Z,66.48
2018-10-09T01:48:46.603Z,66.87
2018-10-09T01:51:14.185Z,68.06
2018-10-09T01:53:40.887Z,67.65
2018-10-09T01:56:08.623Z,67.54
2018-10-09T01:58:35.645Z,67.58
2018-10-09T02:01:02.962Z,67.87
2018-10-09T02:03:30.182Z,67.92
2018-10-09T02:05:56.705Z,67.82
2018-10-09T02:08:23.249Z,67.39
2018-10-09T02:10:50.888Z,66.06
2018-10-09T02:13:17.665Z,66.18
2018-10-09T02:15:44.956Z,66.28
2018-10-09T02:18:12.053Z,66.04
2018-10-09T02:20:40.513Z,65.93
2018-10-09T02:23:08.210Z,66.36
2018-10-09T02:25:35.840Z,67.63
2018-10-09T02:28:02.607Z,66.27
2018-10-09T02:30:29.120Z,67.12
2018-10-09T02:32:56.054Z,67.45
2018-10-09T02:35:22.613Z,67.07
2018-10-09T02:37:49.100Z,67.26
2018-10-09T02:40:15.571Z,68.00
2018-10-09T02:45:14.132Z,68.12
2018-10-09T02:47:40.769Z,67.66
2018-10-09T02:50:09.802Z,68.32
2018-10-09T02:52:38.334Z,68.26
2018-10-09T02:55:05.957Z,68.32
2018-10-09T02:57:32.599Z,68.71
2018-10-09T02:59:59.278Z,68.65
2018-10-09T03:02:25.779Z,68.73
2018-10-09T03:04:52.380Z,67.65
2018-10-09T03:07:19.251Z,67.45
2018-10-09T03:09:45.930Z,67.85
2018-10-09T03:12:12.414Z,67.73
2018-10-09T03:14:40.021Z,66.77
2018-10-09T03:17:06.730Z,66.77
2018-10-09T03:19:33.214Z,66.51
2018-10-09T03:21:59.708Z,66.79
2018-10-09T03:24:26.193Z,66.54
2018-10-09T03:26:52.639Z,66.70
2018-10-09T03:29:19.184Z,66.69
2018-10-09T03:31:45.684Z,66.26
2018-10-09T03:34:12.195Z,66.15
2018-10-09T03:36:38.851Z,66.47
2018-10-09T03:39:05.352Z,65.68
2018-10-09T03:41:31.940Z,66.13
2018-10-09T03:43:58.557Z,65.24
2018-10-09T03:46:25.192Z,66.92
2018-10-09T03:48:51.867Z,66.07
2018-10-09T03:51:18.596Z,65.47
2018-10-09T03:53:45.133Z,65.71
2018-10-09T03:56:11.654Z,65.36
2018-10-09T03:58:38.141Z,65.67
2018-10-09T04:01:04.579Z,65.13
2018-10-09T04:03:31.139Z,65.14
2018-10-09T04:05:57.652Z,66.08
2018-10-09T04:08:24.674Z,66.17
2018-10-09T04:10:51.182Z,66.34
2018-10-09T04:13:17.735Z,65.88
2018-10-09T04:15:44.803Z,65.98
2018-10-09T04:18:11.674Z,66.22
2018-10-09T04:20:38.189Z,65.81
2018-10-09T04:23:04.721Z,65.82
2018-10-09T04:25:31.179Z,65.50
2018-10-09T04:27:57.731Z,66.26
2018-10-09T04:30:24.283Z,65.89
2018-10-09T04:32:50.787Z,65.78
2018-10-09T04:35:17.401Z,65.98
2018-10-09T04:37:44.017Z,66.29
2018-10-09T04:40:11.214Z,66.86
2018-10-09T04:42:37.749Z,67.52
2018-10-09T04:45:04.296Z,66.66
2018-10-09T04:47:30.793Z,66.42
2018-10-09T04:49:57.274Z,66.20
2018-10-09T04:52:24.516Z,66.00
2018-10-09T04:54:51.082Z,65.92
2018-10-09T04:57:17.608Z,65.98
2018-10-09T04:59:44.250Z,65.66
2018-10-09T05:02:11.351Z,66.06
2018-10-09T05:04:37.833Z,66.81
2018-10-09T05:07:04.499Z,66.97
2018-10-09T05:09:30.980Z,66.49
2018-10-09T05:11:57.452Z,66.14
2018-10-09T05:14:23.946Z,66.06
2018-10-09T05:16:50.458Z,66.82
2018-10-09T05:19:16.966Z,67.27
2018-10-09T05:21:43.448Z,66.97
2018-10-09T05:24:09.925Z,66.37
2018-10-09T05:26:36.879Z,66.59
2018-10-09T05:29:03.351Z,66.45
2018-10-09T05:31:30.002Z,66.02
2018-10-09T05:33:56.577Z,68.27
2018-10-09T05:36:23.093Z,67.96
2018-10-09T05:38:49.931Z,66.93
2018-10-09T05:41:16.412Z,65.81
2018-10-09T05:43:42.879Z,66.05
2018-10-09T05:46:09.507Z,66.85
2018-10-09T05:48:36.766Z,66.42
2018-10-09T05:51:03.351Z,66.46
2018-10-09T05:53:29.817Z,66.25
2018-10-09T05:55:56.288Z,66.83
2018-10-09T05:58:22.777Z,66.49
2018-10-09T06:00:49.258Z,66.66
2018-10-09T06:03:15.822Z,66.90
2018-10-09T06:05:42.627Z,67.47
2018-10-09T06:08:09.289Z,67.61
2018-10-09T06:10:35.777Z,69.08
2018-10-09T06:13:02.245Z,68.99
2018-10-09T06:15:28.809Z,68.19
2018-10-09T06:17:55.478Z,68.33
2018-10-09T06:20:22.010Z,68.20
2018-10-09T06:22:48.549Z,68.48
2018-10-09T06:25:15.011Z,67.79
2018-10-09T06:27:42.266Z,66.71
2018-10-09T06:30:08.733Z,66.18
2018-10-09T06:32:35.240Z,65.75
2018-10-09T06:35:05.701Z,65.49
2018-10-09T06:37:32.270Z,65.59
2018-10-09T06:39:58.836Z,65.30
2018-10-09T06:44:57.774Z,64.45
2018-10-09T06:47:24.388Z,63.83
2018-10-09T06:49:51.061Z,63.96
2018-10-09T06:52:17.593Z,63.66
2018-10-09T06:54:44.504Z,63.78
2018-10-09T06:57:11.161Z,62.46
2018-10-09T06:59:37.665Z,62.85
2018-10-09T07:02:04.260Z,62.68
2018-10-09T07:04:30.870Z,62.24
2018-10-09T07:06:57.504Z,63.53
2018-10-09T07:09:23.994Z,63.44
2018-10-09T07:11:50.694Z,62.84
2018-10-09T07:14:18.033Z,61.91
2018-10-09T07:16:44.603Z,62.83
2018-10-09T07:19:11.168Z,63.09
2018-10-09T07:21:37.655Z,63.64
2018-10-09T07:24:04.118Z,63.79
2018-10-09T07:26:30.637Z,63.80
2018-10-09T07:28:57.331Z,62.32
2018-10-09T07:31:23.808Z,62.74
2018-10-09T07:33:50.340Z,61.16
2018-10-09T07:38:48.814Z,61.09
2018-10-09T07:41:15.312Z,61.34
2018-10-09T07:43:41.773Z,62.47
2018-10-09T07:46:08.406Z,62.89
2018-10-09T07:48:34.944Z,63.21
2018-10-09T07:51:01.403Z,61.09
2018-10-09T07:53:27.920Z,60.54
2018-10-09T07:55:55.191Z,61.09
2018-10-09T07:58:21.658Z,61.25
2018-10-09T08:03:20.655Z,60.67
2018-10-09T08:05:47.217Z,62.39
2018-10-09T08:08:13.797Z,60.12
2018-10-09T08:10:40.342Z,61.36
2018-10-09T08:13:07.165Z,60.51
2018-10-09T08:15:33.700Z,60.66
2018-10-09T08:18:00.195Z,60.43
2018-10-09T08:20:26.669Z,58.48
2018-10-09T08:22:53.213Z,58.69
2018-10-09T08:25:19.810Z,59.83
2018-10-09T08:27:46.293Z,60.54
2018-10-09T08:30:12.802Z,59.54
2018-10-09T08:35:13.615Z,59.62
2018-10-09T08:40:13.145Z,58.85
2018-10-09T08:42:39.721Z,59.85
2018-10-09T08:45:06.596Z,59.71
2018-10-09T08:47:33.104Z,59.16
2018-10-09T08:49:59.555Z,59.82
2018-10-09T08:52:26.001Z,58.08
2018-10-09T08:54:52.785Z,58.36
2018-10-09T08:57:19.463Z,57.55
2018-10-09T08:59:46.050Z,58.04
2018-10-09T09:02:12.550Z,57.79
2018-10-09T09:04:39.079Z,56.33
2018-10-09T09:07:05.560Z,57.09
2018-10-09T09:09:32.294Z,57.21
2018-10-09T09:11:58.921Z,55.50
2018-10-09T09:14:25.534Z,56.59
2018-10-09T09:16:52.994Z,54.83
2018-10-09T09:19:19.470Z,56.02
2018-10-09T09:21:46.010Z,54.82
2018-10-09T09:24:12.540Z,53.74
2018-10-09T09:26:39.630Z,53.70
2018-10-09T09:29:06.286Z,54.49
2018-10-09T09:31:32.835Z,54.43
2018-10-09T09:33:59.424Z,52.58
2018-10-09T09:36:25.931Z,52.38
2018-10-09T09:38:53.226Z,51.79
2018-10-09T09:41:19.871Z,50.58
2018-10-09T09:43:47.434Z,51.38
2018-10-09T09:46:14.002Z,50.54
2018-10-09T09:48:40.711Z,52.51
2018-10-09T09:51:07.289Z,51.12
2018-10-09T09:53:36.878Z,51.36
2018-10-09T09:56:03.387Z,49.73
2018-10-09T09:58:29.985Z,47.21
2018-10-09T10:00:58.931Z,48.64
2018-10-09T10:03:25.457Z,47.33
2018-10-09T10:05:52.078Z,46.87
2018-10-09T10:08:19.675Z,48.66
2018-10-09T10:10:46.281Z,46.63
2018-10-09T10:13:12.732Z,46.84
2018-10-09T10:15:39.421Z,48.27
2018-10-09T10:18:06.132Z,48.29
2018-10-09T10:20:32.626Z,46.24
2018-10-09T10:22:59.195Z,45.60
2018-10-09T10:25:25.856Z,47.16
2018-10-09T10:27:52.485Z,46.04
2018-10-09T10:30:19.200Z,46.57
2018-10-09T10:32:45.675Z,46.78
2018-10-09T10:35:12.202Z,45.28
2018-10-09T10:37:39.286Z,44.36
2018-10-09T10:40:05.745Z,45.67
2018-10-09T10:42:32.182Z,45.95
2018-10-09T10:44:58.829Z,48.45
2018-10-09T10:47:25.357Z,45.50
2018-10-09T10:49:51.850Z,43.37
2018-10-09T10:52:18.386Z,44.66
2018-10-09T10:54:45.047Z,42.57
2018-10-09T10:57:12.302Z,43.96
2018-10-09T11:02:10.949Z,41.52
2018-10-09T11:04:37.455Z,41.40
2018-10-09T11:07:04.089Z,43.19
2018-10-09T11:09:30.636Z,40.97
2018-10-09T11:11:57.161Z,41.76
2018-10-09T11:14:27.914Z,40.69
2018-10-09T11:16:54.588Z,43.62
2018-10-09T11:19:21.418Z,43.74
2018-10-09T11:21:47.958Z,44.63
2018-10-09T11:24:21.279Z,42.75
2018-10-09T11:26:50.033Z,41.07
2018-10-09T11:29:16.743Z,41.54
2018-10-09T11:31:43.263Z,41.66
2018-10-09T11:34:09.801Z,41.82
2018-10-09T11:36:36.333Z,41.50
2018-10-09T11:39:02.807Z,41.28
2018-10-09T11:41:29.250Z,40.56
2018-10-09T11:43:55.920Z,40.18
2018-10-09T11:46:22.421Z,40.07
2018-10-09T11:48:48.969Z,41.72
2018-10-09T11:51:15.434Z,42.64
2018-10-09T11:53:41.948Z,43.14
2018-10-09T11:56:08.401Z,42.10
2018-10-09T11:58:34.993Z,41.48
2018-10-09T12:01:01.613Z,41.39
2018-10-09T12:03:29.212Z,40.73
2018-10-09T12:05:55.843Z,40.14
2018-10-09T12:08:22.420Z,40.27
2018-10-09T12:10:48.895Z,40.89
2018-10-09T12:13:15.367Z,40.72
2018-10-09T12:15:41.903Z,39.64
2018-10-09T12:18:08.551Z,39.19
2018-10-09T12:20:35.203Z,38.99
2018-10-09T12:23:01.722Z,39.48
2018-10-09T12:25:29.275Z,40.05
2018-10-09T12:27:55.857Z,39.37
2018-10-09T12:30:22.331Z,39.08
2018-10-09T12:32:48.829Z,38.20
2018-10-09T12:35:18.288Z,37.22
2018-10-09T12:37:44.853Z,36.05
2018-10-09T12:40:11.369Z,36.69
2018-10-09T12:42:37.876Z,37.86
2018-10-09T12:45:08.214Z,37.78
2018-10-09T12:47:34.664Z,36.79
2018-10-09T12:50:01.206Z,36.53
2018-10-09T12:52:27.890Z,36.79
2018-10-09T12:54:54.844Z,35.83
2018-10-09T12:57:21.401Z,37.17
2018-10-09T12:59:47.905Z,36.53
2018-10-09T13:02:14.444Z,37.96
2018-10-09T13:04:40.929Z,37.57
2018-10-09T13:07:07.430Z,36.72
2018-10-09T13:09:34.063Z,38.64
2018-10-09T13:12:00.728Z,37.33
2018-10-09T13:14:27.265Z,37.18
2018-10-09T13:16:53.769Z,38.30
2018-10-09T13:19:20.305Z,37.76
2018-10-09T13:21:47.027Z,38.16
2018-10-09T13:24:13.428Z,37.83
2018-10-09T13:26:39.884Z,39.28
2018-10-09T13:29:08.157Z,39.30
2018-10-09T13:31:34.693Z,40.76
2018-10-09T13:34:02.306Z,41.64
2018-10-09T13:36:29.222Z,40.43
2018-10-09T13:38:55.692Z,40.15
2018-10-09T13:41:22.131Z,39.81
2018-10-09T13:43:48.632Z,38.74
2018-10-09T13:46:15.225Z,39.03
2018-10-09T13:48:41.679Z,38.40
2018-10-09T13:51:08.210Z,39.56
2018-10-09T13:53:34.680Z,39.87
2018-10-09T13:56:01.216Z,39.35
2018-10-09T13:58:27.697Z,39.12
2018-10-09T14:00:54.153Z,40.86
2018-10-09T14:03:20.655Z,41.10
2018-10-09T14:08:18.691Z,40.07
2018-10-09T14:10:46.151Z,40.20
2018-10-09T14:13:12.620Z,40.26
2018-10-09T14:15:39.094Z,39.87
2018-10-09T14:18:05.622Z,40.31
2018-10-09T14:20:35.994Z,39.86
2018-10-09T14:23:02.477Z,39.66
2018-10-09T14:25:29.114Z,38.85
2018-10-09T14:27:55.602Z,39.51
2018-10-09T14:30:23.733Z,40.84
2018-10-09T14:32:50.192Z,40.73
2018-10-09T14:35:16.643Z,40.66
2018-10-09T14:40:15.018Z,43.13
2018-10-09T14:42:41.485Z,41.46
2018-10-09T14:45:08.035Z,42.85
2018-10-09T14:47:34.635Z,41.74
2018-10-09T14:50:01.099Z,41.82
2018-10-09T14:52:27.586Z,42.71
2018-10-09T14:54:54.090Z,42.20
2018-10-09T14:57:20.628Z,41.90
2018-10-09T14:59:47.130Z,42.03
2018-10-09T15:02:13.571Z,42.45
2018-10-09T15:04:40.023Z,42.56
2018-10-09T15:07:06.542Z,42.12
2018-10-09T15:09:33.118Z,42.04
2018-10-09T15:12:00.140Z,41.81
2018-10-09T15:14:26.732Z,41.87
2018-10-09T15:16:53.267Z,42.85
2018-10-09T15:19:19.902Z,42.88
2018-10-09T15:21:46.338Z,43.07
2018-10-09T15:24:12.858Z,43.24
2018-10-09T15:26:40.321Z,44.23
2018-10-09T15:29:06.822Z,44.89
2018-10-09T15:31:33.484Z,45.00
2018-10-09T15:34:00.043Z,44.49
2018-10-09T15:36:26.488Z,44.47
2018-10-09T15:38:53.231Z,44.80
2018-10-09T15:41:19.840Z,44.86
2018-10-09T15:43:46.393Z,45.36
2018-10-09T15:46:12.886Z,45.24
2018-10-09T15:48:39.479Z,45.91
2018-10-09T15:51:05.981Z,46.18
2018-10-09T15:53:32.488Z,46.44
2018-10-09T15:55:58.992Z,46.73
2018-10-09T15:58:25.645Z,46.55
2018-10-09T16:00:53.280Z,46.73
2018-10-09T16:03:19.760Z,46.36
2018-10-09T16:05:46.213Z,47.30
2018-10-09T16:08:12.729Z,47.60
2018-10-09T16:10:39.199Z,47.72
2018-10-09T16:13:05.676Z,48.01
2018-10-09T16:15:32.316Z,49.22
2018-10-09T16:17:58.766Z,48.90
2018-10-09T16:20:25.325Z,49.17
2018-10-09T16:22:51.836Z,49.48
2018-10-09T16:25:18.318Z,49.71
2018-10-09T16:27:44.813Z,49.84
2018-10-09T16:30:12.153Z,50.30
2018-10-09T16:32:38.808Z,50.73
2018-10-09T16:35:05.329Z,50.73
2018-10-09T16:37:33.370Z,50.67
2018-10-09T16:39:59.878Z,50.76
2018-10-09T16:42:26.309Z,52.31
2018-10-09T16:44:52.823Z,53.92
2018-10-09T16:47:22.661Z,54.07
2018-10-09T16:49:49.478Z,53.37
2018-10-09T16:52:15.995Z,53.49
2018-10-09T16:54:42.452Z,54.28
2018-10-09T16:57:09.092Z,53.95
2018-10-09T16:59:35.672Z,53.97
2018-10-09T17:02:02.124Z,54.21
2018-10-09T17:04:28.692Z,55.12
2018-10-09T17:06:55.184Z,55.86
2018-10-09T17:09:21.982Z,55.58
2018-10-09T17:11:48.437Z,55.13
2018-10-09T17:14:15.045Z,55.35
2018-10-09T17:16:41.508Z,55.94
2018-10-09T17:19:07.947Z,55.60
2018-10-09T17:21:34.462Z,55.74
2018-10-09T17:24:02.100Z,56.88
2018-10-09T17:26:28.602Z,56.43
2018-10-09T17:28:55.150Z,56.39
2018-10-09T17:31:21.727Z,57.20
2018-10-09T17:33:48.248Z,56.95
2018-10-09T17:36:14.797Z,57.28
2018-10-09T17:38:41.357Z,56.99
2018-10-09T17:41:07.852Z,56.13
2018-10-09T17:43:34.655Z,57.04
2018-10-09T17:46:01.155Z,56.99
2018-10-09T17:48:27.682Z,58.01
2018-10-09T17:50:54.989Z,59.56
2018-10-09T17:53:21.490Z,59.20
2018-10-09T17:55:47.973Z,59.52
2018-10-09T17:58:15.853Z,59.72
2018-10-09T18:00:42.317Z,59.76
2018-10-09T18:03:08.875Z,59.38
2018-10-09T18:05:35.478Z,58.94
2018-10-09T18:10:39.696Z,58.90
2018-10-09T18:13:06.173Z,58.94
2018-10-09T18:15:32.647Z,58.80
2018-10-09T18:20:32.925Z,59.07
2018-10-09T18:22:59.520Z,58.63
2018-10-09T18:25:26.100Z,58.71
2018-10-09T18:27:52.571Z,59.22
2018-10-09T18:30:19.065Z,59.24
2018-10-09T18:32:45.654Z,59.76
2018-10-09T18:35:12.156Z,60.92
2018-10-09T18:37:38.616Z,59.92
2018-10-09T18:40:05.070Z,60.87
2018-10-09T18:42:31.607Z,61.29
2018-10-09T18:44:58.289Z,61.42
2018-10-09T18:47:24.774Z,60.95
2018-10-09T18:49:51.234Z,60.54
2018-10-09T18:52:18.695Z,61.49
2018-10-09T18:54:45.155Z,61.39
2018-10-09T18:57:11.629Z,61.49
2018-10-09T18:59:38.149Z,61.01
2018-10-09T19:02:04.611Z,60.28
2018-10-09T19:04:31.117Z,60.21
2018-10-09T19:06:57.800Z,60.76
2018-10-09T19:09:24.441Z,60.31
2018-10-09T19:11:50.970Z,61.10
2018-10-09T19:14:17.465Z,61.66
2018-10-09T19:16:44.008Z,62.78
2018-10-09T19:19:10.598Z,62.87
2018-10-09T19:21:37.199Z,62.40
2018-10-09T19:24:03.652Z,61.85
2018-10-09T19:26:30.135Z,61.40
2018-10-09T19:28:56.679Z,61.99
2018-10-09T19:31:23.176Z,61.31
2018-10-09T19:33:50.359Z,61.48
2018-10-09T19:36:16.947Z,62.05
2018-10-09T19:38:46.489Z,61.77
2018-10-09T19:41:13.029Z,61.52
2018-10-09T19:43:39.559Z,61.65
2018-10-09T19:46:06.045Z,61.72
2018-10-09T19:48:32.540Z,62.61
2018-10-09T19:50:59.210Z,62.01
2018-10-09T19:53:25.874Z,62.43
2018-10-09T19:55:53.417Z,62.69
2018-10-09T19:58:20.800Z,63.43
2018-10-09T20:00:47.603Z,63.17
2018-10-09T20:03:14.316Z,62.97
2018-10-09T20:05:41.381Z,62.79
2018-10-09T20:08:07.863Z,63.38
2018-10-09T20:10:34.332Z,63.42
2018-10-09T20:13:01.111Z,62.82
2018-10-09T20:15:28.725Z,62.79
2018-10-09T20:17:55.219Z,62.32
2018-10-09T20:22:54.069Z,62.17
2018-10-09T20:25:20.649Z,63.10
2018-10-09T20:27:47.143Z,64.16
2018-10-09T20:30:13.636Z,64.30
2018-10-09T20:32:40.153Z,64.19
2018-10-09T20:35:06.643Z,63.06
2018-10-09T20:37:33.355Z,62.96
2018-10-09T20:39:59.833Z,62.74
2018-10-09T20:42:26.769Z,64.37
2018-10-09T20:44:53.322Z,64.26
2018-10-09T20:47:19.950Z,64.66
2018-10-09T20:49:46.504Z,65.71
2018-10-09T20:54:45.127Z,65.72
2018-10-09T20:57:11.580Z,65.26
2018-10-09T20:59:39.747Z,64.78
2018-10-09T21:02:07.900Z,63.90
2018-10-09T21:04:34.423Z,64.17
2018-10-09T21:07:00.852Z,63.95
2018-10-09T21:09:27.513Z,63.72
2018-10-09T21:12:01.341Z,64.43
2018-10-09T21:14:27.831Z,64.57
2018-10-09T21:16:54.338Z,65.31
2018-10-09T21:19:21.038Z,64.34
2018-10-09T21:21:47.550Z,64.15
2018-10-09T21:24:14.028Z,63.31
2018-10-09T21:26:41.944Z,64.32
2018-10-09T21:29:08.436Z,64.26
2018-10-09T21:31:34.957Z,63.26
2018-10-09T21:34:01.467Z,63.19
2018-10-09T21:36:27.976Z,63.75
2018-10-09T21:38:54.652Z,65.16
2018-10-09T21:41:21.150Z,65.80
2018-10-09T21:43:47.717Z,65.73
2018-10-09T21:46:14.356Z,65.93
2018-10-09T21:48:41.188Z,66.15
2018-10-09T21:51:07.701Z,66.71
2018-10-09T21:53:34.388Z,65.86
2018-10-09T21:56:01.154Z,65.66
2018-10-09T21:58:27.645Z,65.19
2018-10-09T22:00:54.286Z,65.86
2018-10-09T22:03:20.782Z,65.30
2018-10-09T22:05:47.276Z,65.49
2018-10-09T22:08:13.807Z,64.65
2018-10-09T22:10:40.406Z,65.43
2018-10-09T22:13:07.020Z,65.99
2018-10-09T22:15:33.480Z,66.26
2018-10-09T22:18:00.255Z,65.54
2018-10-09T22:20:26.756Z,65.27
2018-10-09T22:22:53.412Z,64.04
2018-10-09T22:25:19.993Z,64.03
2018-10-09T22:27:46.494Z,64.51
2018-10-09T22:30:15.774Z,64.39
2018-10-09T22:32:42.229Z,65.07
2018-10-09T22:35:09.083Z,65.35
2018-10-09T22:37:35.556Z,65.74
2018-10-09T22:40:02.026Z,65.99
2018-10-09T22:42:28.533Z,65.33
2018-10-09T22:44:55.951Z,65.33
2018-10-09T22:47:22.473Z,66.03
2018-10-09T22:49:48.984Z,66.35
2018-10-09T22:52:15.504Z,67.54
2018-10-09T22:54:42.029Z,67.08
2018-10-09T22:57:08.504Z,67.16
2018-10-09T22:59:35.032Z,67.02
2018-10-09T23:02:01.763Z,66.25
2018-10-09T23:04:28.289Z,66.31
2018-10-09T23:06:54.813Z,67.16
2018-10-09T23:09:21.304Z,68.54
2018-10-09T23:11:47.803Z,68.68
2018-10-09T23:14:14.458Z,68.71
2018-10-09T23:16:40.940Z,68.50
2018-10-09T23:19:07.467Z,67.18
2018-10-09T23:21:34.032Z,66.46
2018-10-09T23:24:03.317Z,67.99
2018-10-09T23:26:31.124Z,67.33
2018-10-09T23:29:00.177Z,66.53
2018-10-09T23:31:27.433Z,66.41
2018-10-09T23:33:55.585Z,66.39
2018-10-09T23:36:22.637Z,65.58
2018-10-09T23:38:49.188Z,64.29
2018-10-09T23:41:17.100Z,65.28
2018-10-09T23:43:45.589Z,66.76
2018-10-09T23:46:13.054Z,66.69
2018-10-09T23:51:12.022Z,67.66
2018-10-09T23:53:39.484Z,67.20
2018-10-09T23:56:07.125Z,66.89
2018-10-09T23:58:36.295Z,66.54
